sensor_id;sensor_type;location;lat;lon;timestamp;temperature;humidity
73875;HTU21D;62209;47.568;7.558;2022-10-26T00:09:25;15.17;100.77
73875;HTU21D;62209;47.568;7.558;2022-10-26T00:24:30;15.06;100.85
73875;HTU21D;62209;47.568;7.558;2022-10-26T00:39:36;15.09;100.16
73875;HTU21D;62209;47.568;7.558;2022-10-26T00:54:41;15.15;99.70
73875;HTU21D;62209;47.568;7.558;2022-10-26T01:09:48;15.04;101.84
73875;HTU21D;62209;47.568;7.558;2022-10-26T01:25:04;14.98;101.95
73875;HTU21D;62209;47.568;7.558;2022-10-26T01:40:20;14.91;103.66
73875;HTU21D;62209;47.568;7.558;2022-10-26T02:10:58;14.70;105.02
73875;HTU21D;62209;47.568;7.558;2022-10-26T02:26:10;14.62;105.05
73875;HTU21D;62209;47.568;7.558;2022-10-26T02:41:19;14.54;105.54
73875;HTU21D;62209;47.568;7.558;2022-10-26T02:56:27;14.44;105.73
73875;HTU21D;62209;47.568;7.558;2022-10-26T03:11:37;14.40;105.77
73875;HTU21D;62209;47.568;7.558;2022-10-26T03:26:43;14.48;105.59
73875;HTU21D;62209;47.568;7.558;2022-10-26T03:41:49;14.45;105.98
73875;HTU21D;62209;47.568;7.558;2022-10-26T03:56:54;14.45;105.93
73875;HTU21D;62209;47.568;7.558;2022-10-26T04:12:00;14.44;106.06
73875;HTU21D;62209;47.568;7.558;2022-10-26T04:27:05;14.42;106.05
73875;HTU21D;62209;47.568;7.558;2022-10-26T04:42:11;14.44;106.08
73875;HTU21D;62209;47.568;7.558;2022-10-26T04:57:16;14.40;106.82
73875;HTU21D;62209;47.568;7.558;2022-10-26T05:12:22;14.50;105.59
73875;HTU21D;62209;47.568;7.558;2022-10-26T05:27:28;14.55;105.08
73875;HTU21D;62209;47.568;7.558;2022-10-26T05:42:34;14.47;105.24
73875;HTU21D;62209;47.568;7.558;2022-10-26T05:57:40;14.37;105.57
73875;HTU21D;62209;47.568;7.558;2022-10-26T06:12:47;14.38;105.65
73875;HTU21D;62209;47.568;7.558;2022-10-26T06:27:55;14.38;106.30
73875;HTU21D;62209;47.568;7.558;2022-10-26T06:43:10;14.41;106.46
73875;HTU21D;62209;47.568;7.558;2022-10-26T06:58:24;14.59;106.18
73875;HTU21D;62209;47.568;7.558;2022-10-26T07:13:33;15.38;103.91
73875;HTU21D;62209;47.568;7.558;2022-10-26T07:28:38;15.29;103.76
73875;HTU21D;62209;47.568;7.558;2022-10-26T07:43:44;15.34;104.13
73875;HTU21D;62209;47.568;7.558;2022-10-26T07:58:52;15.31;104.17
73875;HTU21D;62209;47.568;7.558;2022-10-26T08:13:59;15.25;104.12
73875;HTU21D;62209;47.568;7.558;2022-10-26T08:29:05;17.48;99.53
73875;HTU21D;62209;47.568;7.558;2022-10-26T08:44:14;18.76;95.54
73875;HTU21D;62209;47.568;7.558;2022-10-26T08:59:27;19.82;92.67
73875;HTU21D;62209;47.568;7.558;2022-10-26T09:14:38;21.03;89.44
73875;HTU21D;62209;47.568;7.558;2022-10-26T09:29:51;21.55;87.30
73875;HTU21D;62209;47.568;7.558;2022-10-26T09:45:00;21.96;85.16
73875;HTU21D;62209;47.568;7.558;2022-10-26T10:00:13;20.63;88.37
73875;HTU21D;62209;47.568;7.558;2022-10-26T10:15:21;22.10;83.65
73875;HTU21D;62209;47.568;7.558;2022-10-26T10:30:30;22.80;81.58
73875;HTU21D;62209;47.568;7.558;2022-10-26T10:45:36;23.02;79.04
73875;HTU21D;62209;47.568;7.558;2022-10-26T11:00:44;23.41;77.27
73875;HTU21D;62209;47.568;7.558;2022-10-26T11:15:53;23.81;78.92
73875;HTU21D;62209;47.568;7.558;2022-10-26T11:31:05;23.69;77.13
73875;HTU21D;62209;47.568;7.558;2022-10-26T11:46:20;23.91;78.79
73875;HTU21D;62209;47.568;7.558;2022-10-26T12:01:28;23.51;78.99
73875;HTU21D;62209;47.568;7.558;2022-10-26T12:16:40;23.27;78.30
73875;HTU21D;62209;47.568;7.558;2022-10-26T12:31:51;23.23;79.16
73875;HTU21D;62209;47.568;7.558;2022-10-26T12:46:57;23.56;77.92
73875;HTU21D;62209;47.568;7.558;2022-10-26T13:17:53;23.66;78.15
73875;HTU21D;62209;47.568;7.558;2022-10-26T13:33:02;23.45;76.08
73875;HTU21D;62209;47.568;7.558;2022-10-26T13:48:15;23.70;77.82
73875;HTU21D;62209;47.568;7.558;2022-10-26T14:03:26;23.51;77.30
73875;HTU21D;62209;47.568;7.558;2022-10-26T14:18:32;23.30;78.28
73875;HTU21D;62209;47.568;7.558;2022-10-26T14:33:38;23.01;78.48
73875;HTU21D;62209;47.568;7.558;2022-10-26T14:48:50;22.67;78.50
73875;HTU21D;62209;47.568;7.558;2022-10-26T15:03:59;21.96;77.65
73875;HTU21D;62209;47.568;7.558;2022-10-26T15:19:07;21.36;79.06
73875;HTU21D;62209;47.568;7.558;2022-10-26T15:34:15;21.66;79.91
73875;HTU21D;62209;47.568;7.558;2022-10-26T15:49:26;21.05;82.01
73875;HTU21D;62209;47.568;7.558;2022-10-26T16:04:32;20.27;85.74
73875;HTU21D;62209;47.568;7.558;2022-10-26T16:19:38;19.46;88.31
73875;HTU21D;62209;47.568;7.558;2022-10-26T16:34:43;18.67;93.32
73875;HTU21D;62209;47.568;7.558;2022-10-26T16:49:49;18.09;94.13
73875;HTU21D;62209;47.568;7.558;2022-10-26T17:04:55;17.49;96.30
73875;HTU21D;62209;47.568;7.558;2022-10-26T17:20:09;16.90;97.39
73875;HTU21D;62209;47.568;7.558;2022-10-26T17:35:15;16.43;98.34
73875;HTU21D;62209;47.568;7.558;2022-10-26T17:50:22;16.14;99.72
73875;HTU21D;62209;47.568;7.558;2022-10-26T18:05:28;15.85;99.80
73875;HTU21D;62209;47.568;7.558;2022-10-26T18:20:35;15.51;101.58
73875;HTU21D;62209;47.568;7.558;2022-10-26T18:35:41;15.36;102.39
73875;HTU21D;62209;47.568;7.558;2022-10-26T18:50:48;15.01;102.75
73875;HTU21D;62209;47.568;7.558;2022-10-26T19:05:54;15.43;102.86
73875;HTU21D;62209;47.568;7.558;2022-10-26T19:21:01;15.67;104.53
73875;HTU21D;62209;47.568;7.558;2022-10-26T19:36:10;15.54;104.31
73875;HTU21D;62209;47.568;7.558;2022-10-26T19:51:17;15.51;104.59
73875;HTU21D;62209;47.568;7.558;2022-10-26T20:06:24;15.40;105.29
73875;HTU21D;62209;47.568;7.558;2022-10-26T20:21:29;15.11;104.92
73875;HTU21D;62209;47.568;7.558;2022-10-26T20:36:35;15.07;105.89
73875;HTU21D;62209;47.568;7.558;2022-10-26T20:51:41;14.88;105.67
73875;HTU21D;62209;47.568;7.558;2022-10-26T21:07:12;14.69;105.93
73875;HTU21D;62209;47.568;7.558;2022-10-26T21:22:17;14.40;105.03
73875;HTU21D;62209;47.568;7.558;2022-10-26T21:37:24;14.44;106.51
73875;HTU21D;62209;47.568;7.558;2022-10-26T21:52:30;14.26;106.44
73875;HTU21D;62209;47.568;7.558;2022-10-26T22:07:36;14.10;106.16
73875;HTU21D;62209;47.568;7.558;2022-10-26T22:22:42;14.05;105.10
73875;HTU21D;62209;47.568;7.558;2022-10-26T22:37:47;13.85;106.71
73875;HTU21D;62209;47.568;7.558;2022-10-26T22:52:53;13.84;107.50
73875;HTU21D;62209;47.568;7.558;2022-10-26T23:07:59;13.79;106.77
73875;HTU21D;62209;47.568;7.558;2022-10-26T23:23:04;13.73;107.26
73875;HTU21D;62209;47.568;7.558;2022-10-26T23:38:10;13.40;106.95
73875;HTU21D;62209;47.568;7.558;2022-10-26T23:53:16;13.31;107.37
